Time;durP1;ratioP1;P1;durP2;ratioP2;P2;SDS_P1;SDS_P2;PMS_P1;PMS_P2;Temp;Humidity;BMP_temperature;BMP_pressure;BME280_temperature;BME280_humidity;BME280_pressure;Samples;Min_cycle;Max_cycle;Signal;HPM_P1;HPM_P2
2023/01/09 00:00:47;;;;;;;3.17;0.90;;;8.10;99.90;;;;;;4915735;28;20027;-85
2023/01/09 00:03:12;;;;;;;1.10;0.90;;;8.10;99.90;;;;;;4932041;28;20077;-84
2023/01/09 00:05:38;;;;;;;1.20;0.90;;;8.10;99.90;;;;;;4933729;28;20035;-83
2023/01/09 00:08:04;;;;;;;1.25;0.70;;;8.10;99.90;;;;;;4949841;28;20038;-83
2023/01/09 00:10:29;;;;;;;1.75;0.60;;;8.10;99.90;;;;;;4915301;28;20118;-82
2023/01/09 00:12:55;;;;;;;0.90;0.70;;;8.00;99.90;;;;;;4911867;28;20059;-83
2023/01/09 00:15:20;;;;;;;1.17;0.47;;;8.00;99.90;;;;;;4919100;28;20057;-82
2023/01/09 00:17:46;;;;;;;2.22;0.80;;;8.00;99.90;;;;;;4935776;28;20046;-83
2023/01/09 00:20:12;;;;;;;0.60;0.60;;;8.10;99.90;;;;;;4931810;28;20177;-83
2023/01/09 00:22:38;;;;;;;1.83;0.63;;;8.10;99.90;;;;;;4917827;28;20121;-82
2023/01/09 00:25:04;;;;;;;1.20;0.77;;;8.00;99.90;;;;;;4947999;28;20062;-83
2023/01/09 00:27:32;;;;;;;1.38;0.52;;;8.00;99.90;;;;;;4932479;28;20410;-82
2023/01/09 00:29:57;;;;;;;1.27;0.52;;;8.00;99.90;;;;;;4920091;28;20034;-83
2023/01/09 00:32:23;;;;;;;1.10;0.60;;;8.00;99.90;;;;;;4928536;28;20043;-83
2023/01/09 00:34:49;;;;;;;0.73;0.50;;;8.10;99.90;;;;;;4934898;28;20035;-84
2023/01/09 00:37:14;;;;;;;0.63;0.57;;;8.00;99.90;;;;;;4916077;28;20092;-84
2023/01/09 00:39:40;;;;;;;2.50;0.70;;;8.00;99.90;;;;;;4916355;28;20038;-83
2023/01/09 00:42:07;;;;;;;0.88;0.60;;;7.90;99.90;;;;;;4918683;28;20499;-83
2023/01/09 00:44:35;;;;;;;0.63;0.50;;;7.90;99.90;;;;;;4922329;28;20039;-83
2023/01/09 00:47:04;;;;;;;0.15;0.10;;;7.80;99.90;;;;;;4921087;28;20150;-83
2023/01/09 00:49:31;;;;;;;3.30;0.35;;;7.90;99.90;;;;;;4927555;28;20454;-84
2023/01/09 00:51:57;;;;;;;0.30;0.30;;;7.90;99.90;;;;;;4931438;28;20059;-83
2023/01/09 00:54:22;;;;;;;0.32;0.32;;;7.90;99.90;;;;;;4917753;28;20058;-84
2023/01/09 00:56:49;;;;;;;1.23;0.68;;;7.80;99.90;;;;;;4944258;28;20024;-84
2023/01/09 00:59:14;;;;;;;0.20;0.20;;;7.90;99.90;;;;;;4925622;28;20484;-84
2023/01/09 01:01:40;;;;;;;1.35;0.20;;;7.80;99.90;;;;;;4930431;28;20023;-83
2023/01/09 01:09:33;;;;;;;1.90;1.00;;;7.70;99.90;;;;;;4945664;28;20094;-84
2023/01/09 01:12:00;;;;;;;0.93;0.25;;;7.70;99.90;;;;;;4931954;28;20812;-83
2023/01/09 01:14:26;;;;;;;1.65;0.30;;;7.70;99.90;;;;;;4927460;28;20035;-84
2023/01/09 01:16:52;;;;;;;0.85;0.40;;;7.60;99.90;;;;;;4916244;28;20039;-83
2023/01/09 01:19:17;;;;;;;0.50;0.20;;;7.70;99.90;;;;;;4929013;28;20479;-82
2023/01/09 01:21:43;;;;;;;0.77;0.68;;;7.80;99.90;;;;;;4946948;28;20130;-83
2023/01/09 01:24:08;;;;;;;0.85;0.40;;;7.70;99.90;;;;;;4914599;28;20542;-82
2023/01/09 01:26:34;;;;;;;0.38;0.30;;;7.60;99.90;;;;;;4931093;28;20055;-82
2023/01/09 01:28:59;;;;;;;0.20;0.20;;;7.60;99.90;;;;;;4933192;28;20547;-82
2023/01/09 01:31:25;;;;;;;0.75;0.40;;;7.50;99.90;;;;;;4927761;28;20081;-83
2023/01/09 01:33:50;;;;;;;0.30;0.22;;;7.60;99.90;;;;;;4943563;28;20022;-82
2023/01/09 01:36:16;;;;;;;0.50;0.30;;;7.60;99.90;;;;;;4917929;28;20032;-82
2023/01/09 01:38:42;;;;;;;1.30;0.30;;;7.60;99.90;;;;;;4945412;28;20034;-82
2023/01/09 01:41:07;;;;;;;0.20;0.20;;;7.50;99.90;;;;;;4931139;28;20027;-82
2023/01/09 01:43:53;;;;;;;0.30;0.30;;;7.50;99.90;;;;;;4945227;28;20047;-82
2023/01/09 01:46:19;;;;;;;1.63;0.80;;;7.50;99.90;;;;;;4930898;28;20041;-82
2023/01/09 01:48:46;;;;;;;0.60;0.30;;;7.50;99.90;;;;;;4939923;28;20110;-83
2023/01/09 01:51:14;;;;;;;0.60;0.47;;;7.40;99.90;;;;;;4934953;28;20023;-82
2023/01/09 01:53:43;;;;;;;2.67;0.43;;;7.40;99.90;;;;;;4934781;28;20058;-82
2023/01/09 01:56:29;;;;;;;0.30;0.20;;;7.40;99.90;;;;;;4953377;28;20521;-82
2023/01/09 01:59:01;;;;;;;1.17;0.57;;;7.40;99.90;;;;;;4917524;28;20031;-82
2023/01/09 02:01:27;;;;;;;0.30;0.30;;;7.40;99.90;;;;;;4917602;28;20553;-82
2023/01/09 02:03:54;;;;;;;0.40;0.20;;;7.40;99.90;;;;;;4938367;28;20110;-81
2023/01/09 02:06:19;;;;;;;0.22;0.20;;;7.50;99.90;;;;;;4914103;28;20023;-82
2023/01/09 02:08:45;;;;;;;1.45;0.20;;;7.40;99.90;;;;;;4938454;28;20505;-81
2023/01/09 02:11:13;;;;;;;0.17;0.05;;;7.50;99.90;;;;;;4938375;28;20051;-81
2023/01/09 02:13:39;;;;;;;0.68;0.20;;;7.40;99.90;;;;;;4953650;28;20038;-83
2023/01/09 02:16:42;;;;;;;0.10;0.10;;;7.50;99.90;;;;;;4938589;28;20027;-82
2023/01/09 02:19:33;;;;;;;0.25;0.08;;;7.50;99.90;;;;;;4951323;28;20035;-82
2023/01/09 02:22:17;;;;;;;1.73;0.20;;;7.40;99.90;;;;;;4970107;28;20090;-83
2023/01/09 02:24:42;;;;;;;0.55;0.22;;;7.40;99.90;;;;;;4946931;28;20035;-81
2023/01/09 02:27:49;;;;;;;1.08;0.28;;;7.40;99.90;;;;;;4956254;28;20553;-81
2023/01/09 02:30:54;;;;;;;0.15;0.10;;;7.40;99.90;;;;;;4924069;28;20577;-81
2023/01/09 02:33:38;;;;;;;0.10;0.10;;;7.40;99.90;;;;;;4952735;28;20027;-81
2023/01/09 02:36:12;;;;;;;1.55;0.20;;;7.40;99.90;;;;;;4949578;28;20038;-81
2023/01/09 02:38:40;;;;;;;0.93;0.32;;;7.40;99.90;;;;;;4952748;28;20042;-83
2023/01/09 02:41:25;;;;;;;0.00;0.00;;;7.50;99.90;;;;;;4939017;28;20127;-81
2023/01/09 02:44:21;;;;;;;0.17;0.08;;;7.30;99.90;;;;;;4963314;28;20030;-82
2023/01/09 02:46:47;;;;;;;0.35;0.25;;;7.20;99.90;;;;;;4944872;28;20035;-82
2023/01/09 02:49:13;;;;;;;0.20;0.20;;;7.30;99.90;;;;;;4939842;28;20414;-81
2023/01/09 02:51:52;;;;;;;1.48;0.30;;;7.20;99.90;;;;;;4920117;28;20560;-81
2023/01/09 02:54:19;;;;;;;0.95;0.20;;;7.20;99.90;;;;;;4921980;28;20621;-83
2023/01/09 02:56:57;;;;;;;1.08;0.30;;;7.20;99.90;;;;;;4946431;28;20402;-82
2023/01/09 02:59:45;;;;;;;2.38;0.43;;;7.10;99.90;;;;;;4949328;28;20451;-81
2023/01/09 03:02:47;;;;;;;0.70;0.20;;;7.10;99.90;;;;;;4947673;28;20038;-81
2023/01/09 03:05:18;;;;;;;1.75;0.32;;;7.20;99.90;;;;;;4923009;28;20042;-82
2023/01/09 03:08:12;;;;;;;1.20;0.43;;;7.20;99.90;;;;;;4947392;28;20499;-82
2023/01/09 03:10:47;;;;;;;0.20;0.10;;;7.20;99.90;;;;;;4948940;28;20563;-84
2023/01/09 03:13:14;;;;;;;0.50;0.10;;;7.20;99.90;;;;;;4946955;28;20039;-84
2023/01/09 03:15:40;;;;;;;1.45;0.30;;;7.20;99.90;;;;;;4935122;28;20053;-84
2023/01/09 03:18:07;;;;;;;3.28;0.45;;;7.20;99.90;;;;;;4949341;28;20848;-84
2023/01/09 03:20:32;;;;;;;1.15;0.30;;;7.20;99.90;;;;;;4919346;28;20030;-84
2023/01/09 03:22:59;;;;;;;0.68;0.30;;;7.10;99.90;;;;;;4931559;28;20065;-84
2023/01/09 03:25:26;;;;;;;0.60;0.30;;;7.10;99.90;;;;;;4930889;28;20034;-83
2023/01/09 03:27:56;;;;;;;2.50;0.20;;;7.20;99.90;;;;;;4950116;28;20038;-84
2023/01/09 03:30:21;;;;;;;0.80;0.47;;;7.20;99.90;;;;;;4931756;28;20501;-84
2023/01/09 03:32:47;;;;;;;0.57;0.28;;;7.20;99.90;;;;;;4933243;28;20058;-84
2023/01/09 03:35:12;;;;;;;1.17;0.60;;;7.10;99.90;;;;;;4937382;28;20112;-83
2023/01/09 03:37:38;;;;;;;1.27;0.68;;;7.20;99.90;;;;;;4933291;28;20035;-84
2023/01/09 03:40:04;;;;;;;1.35;0.35;;;7.20;99.90;;;;;;4920403;28;20039;-84
2023/01/09 03:42:30;;;;;;;0.35;0.35;;;7.10;99.90;;;;;;4928830;28;20133;-84
2023/01/09 03:44:55;;;;;;;2.00;0.73;;;7.20;99.90;;;;;;4934206;28;20151;-83
2023/01/09 03:47:21;;;;;;;6.28;0.45;;;7.20;99.90;;;;;;4946466;28;20055;-84
2023/01/09 03:49:46;;;;;;;0.75;0.43;;;7.20;99.90;;;;;;4934239;28;20039;-84
2023/01/09 03:52:12;;;;;;;1.15;0.63;;;7.20;99.90;;;;;;4917876;28;20045;-84
2023/01/09 03:54:38;;;;;;;1.30;0.70;;;7.20;99.90;;;;;;4931064;28;20874;-84
2023/01/09 03:57:04;;;;;;;4.20;1.25;;;7.20;99.90;;;;;;4934461;28;20051;-81
2023/01/09 03:59:30;;;;;;;3.40;1.13;;;7.20;99.90;;;;;;4934335;28;20395;-82
2023/01/09 04:01:55;;;;;;;4.10;1.20;;;7.10;99.90;;;;;;4947546;28;20054;-82
2023/01/09 04:04:21;;;;;;;1.65;0.85;;;7.00;99.90;;;;;;4930240;28;20471;-82
2023/01/09 04:06:46;;;;;;;4.57;1.80;;;7.00;99.90;;;;;;4950752;28;20046;-81
2023/01/09 04:09:12;;;;;;;1.67;0.40;;;6.90;99.90;;;;;;4915819;28;20077;-81
2023/01/09 04:11:38;;;;;;;7.07;1.20;;;6.90;99.90;;;;;;4936459;28;20030;-81
2023/01/09 04:14:03;;;;;;;3.85;1.08;;;6.90;99.90;;;;;;4946996;28;20046;-81
2023/01/09 04:16:29;;;;;;;2.50;0.90;;;6.90;99.90;;;;;;4929427;28;20054;-81
2023/01/09 04:18:54;;;;;;;1.88;0.82;;;6.80;99.90;;;;;;4933248;28;20368;-82
2023/01/09 04:21:20;;;;;;;1.48;1.00;;;6.90;99.90;;;;;;4919936;28;20371;-81
2023/01/09 04:23:45;;;;;;;3.72;0.85;;;6.90;99.90;;;;;;4933579;28;20092;-81
2023/01/09 04:26:12;;;;;;;1.25;0.65;;;6.80;99.90;;;;;;4917244;28;20037;-81
2023/01/09 04:28:38;;;;;;;1.85;1.30;;;6.80;99.90;;;;;;4917991;28;20026;-80
2023/01/09 04:31:04;;;;;;;1.77;1.00;;;6.80;99.90;;;;;;4946703;28;20062;-80
2023/01/09 04:33:29;;;;;;;5.35;0.70;;;6.80;99.90;;;;;;4948358;28;20491;-80
2023/01/09 04:35:55;;;;;;;1.67;0.98;;;6.70;99.90;;;;;;4916513;28;20035;-80
2023/01/09 04:38:20;;;;;;;3.22;0.90;;;6.50;99.90;;;;;;4919520;28;20455;-79
2023/01/09 04:40:47;;;;;;;1.90;0.80;;;6.60;99.90;;;;;;4918161;28;20045;-81
2023/01/09 04:43:13;;;;;;;7.05;1.05;;;6.60;99.90;;;;;;4947409;28;20499;-80
2023/01/09 04:45:38;;;;;;;1.00;0.90;;;6.50;99.90;;;;;;4920973;28;20038;-80
2023/01/09 04:48:04;;;;;;;4.13;1.15;;;6.50;99.90;;;;;;4948570;28;20042;-80
2023/01/09 04:50:30;;;;;;;2.92;0.95;;;6.50;99.90;;;;;;4920140;28;20123;-81
2023/01/09 04:52:56;;;;;;;3.78;1.23;;;6.50;99.90;;;;;;4929527;28;20533;-81
2023/01/09 04:55:22;;;;;;;3.00;0.68;;;6.50;99.90;;;;;;4917925;28;20042;-82
2023/01/09 04:57:47;;;;;;;3.90;1.20;;;6.50;99.90;;;;;;4934023;28;20027;-81
2023/01/09 05:00:13;;;;;;;5.35;1.13;;;6.40;99.90;;;;;;4930540;28;20027;-82
2023/01/09 05:02:39;;;;;;;4.45;1.25;;;6.30;99.90;;;;;;4950740;28;20035;-81
2023/01/09 05:05:05;;;;;;;3.95;0.95;;;6.30;99.90;;;;;;4933189;28;20141;-81
2023/01/09 05:07:30;;;;;;;2.53;0.65;;;6.10;99.90;;;;;;4915927;28;20086;-81
2023/01/09 05:09:56;;;;;;;5.95;1.50;;;6.10;99.90;;;;;;4927275;28;20494;-82
2023/01/09 05:12:21;;;;;;;1.30;0.82;;;6.10;99.90;;;;;;4915627;28;20030;-80
2023/01/09 05:14:47;;;;;;;2.65;0.80;;;6.20;99.90;;;;;;4929814;28;20389;-81
2023/01/09 05:17:12;;;;;;;2.50;0.68;;;6.20;99.90;;;;;;4940879;28;20498;-80
2023/01/09 05:19:38;;;;;;;4.63;1.05;;;6.10;99.90;;;;;;4932908;28;20037;-80
2023/01/09 05:22:04;;;;;;;1.65;0.45;;;6.20;99.90;;;;;;4930983;28;20042;-80
2023/01/09 05:24:29;;;;;;;2.78;0.63;;;6.20;99.90;;;;;;4930734;28;20466;-80
2023/01/09 05:26:55;;;;;;;5.32;0.60;;;6.10;99.90;;;;;;4933738;28;20030;-80
2023/01/09 05:29:21;;;;;;;1.35;0.93;;;6.20;99.90;;;;;;4931830;28;20026;-81
2023/01/09 05:31:46;;;;;;;3.17;0.93;;;6.10;99.90;;;;;;4947368;28;20503;-80
2023/01/09 05:34:12;;;;;;;3.92;0.77;;;6.10;99.90;;;;;;4948213;28;20034;-81
2023/01/09 05:36:37;;;;;;;3.92;0.77;;;6.20;99.90;;;;;;4932567;28;20023;-80
2023/01/09 05:39:04;;;;;;;1.23;0.30;;;6.20;99.90;;;;;;4916628;28;20063;-80
2023/01/09 05:41:29;;;;;;;2.95;0.65;;;6.30;99.90;;;;;;4942938;28;20028;-80
2023/01/09 05:43:55;;;;;;;3.20;0.77;;;6.30;99.90;;;;;;4949184;28;20046;-81
2023/01/09 05:46:21;;;;;;;2.78;0.88;;;6.30;99.90;;;;;;4930279;28;20027;-81
2023/01/09 05:48:46;;;;;;;1.95;0.45;;;6.20;99.90;;;;;;4929497;28;20041;-81
2023/01/09 05:51:12;;;;;;;2.95;0.40;;;6.30;99.90;;;;;;4917323;28;20038;-81
2023/01/09 05:53:37;;;;;;;2.67;0.75;;;6.40;99.90;;;;;;4930937;28;20042;-81
2023/01/09 05:56:03;;;;;;;3.83;0.70;;;6.30;99.90;;;;;;4926043;28;20073;-82
2023/01/09 05:58:28;;;;;;;6.40;0.93;;;6.30;99.90;;;;;;4943978;28;20042;-81
2023/01/09 06:00:54;;;;;;;4.60;0.30;;;6.50;99.90;;;;;;4933678;28;20521;-81
2023/01/09 06:03:19;;;;;;;5.82;0.80;;;6.40;99.90;;;;;;4934022;28;20058;-81
2023/01/09 06:05:45;;;;;;;2.83;0.40;;;6.40;99.90;;;;;;4929255;28;20118;-80
2023/01/09 06:08:10;;;;;;;1.75;0.80;;;6.40;99.90;;;;;;4928765;28;21036;-81
2023/01/09 06:10:36;;;;;;;4.60;0.73;;;6.40;99.90;;;;;;4917738;28;20042;-81
2023/01/09 06:13:01;;;;;;;5.07;0.68;;;6.50;99.90;;;;;;4929989;28;20094;-81
2023/01/09 06:15:27;;;;;;;4.85;0.90;;;6.40;99.90;;;;;;4931000;28;20499;-81
2023/01/09 06:17:52;;;;;;;3.40;0.60;;;6.40;99.90;;;;;;4930032;28;20133;-81
2023/01/09 06:20:18;;;;;;;5.55;0.85;;;6.40;99.90;;;;;;4932129;28;21505;-81
2023/01/09 06:22:44;;;;;;;5.18;0.90;;;6.40;99.90;;;;;;4943696;28;20035;-81
2023/01/09 06:25:10;;;;;;;6.57;0.80;;;6.40;99.90;;;;;;4929550;28;20070;-81
2023/01/09 06:27:36;;;;;;;2.72;0.50;;;6.40;99.90;;;;;;4944864;28;20438;-81
2023/01/09 06:30:01;;;;;;;7.32;1.35;;;6.40;99.90;;;;;;4929663;28;20059;-81
2023/01/09 06:32:27;;;;;;;1.55;0.60;;;6.50;99.90;;;;;;4927307;28;20039;-81
2023/01/09 06:34:54;;;;;;;1.75;0.30;;;6.40;99.90;;;;;;4949877;28;20440;-80
2023/01/09 06:37:20;;;;;;;2.88;0.50;;;6.50;99.90;;;;;;4934288;28;20043;-81
2023/01/09 06:39:45;;;;;;;2.28;0.63;;;6.50;99.90;;;;;;4949751;28;20058;-81
2023/01/09 06:42:11;;;;;;;0.35;0.35;;;6.50;99.90;;;;;;4934004;28;20394;-81
2023/01/09 06:44:36;;;;;;;13.60;3.00;;;6.40;99.90;;;;;;4945906;28;20038;-81
2023/01/09 06:47:03;;;;;;;2.83;0.98;;;6.40;99.90;;;;;;4932756;28;20035;-80
2023/01/09 06:49:28;;;;;;;7.82;1.23;;;6.50;99.90;;;;;;4935712;28;20048;-81
2023/01/09 06:51:54;;;;;;;0.47;0.40;;;6.50;99.90;;;;;;4934343;28;20093;-81
2023/01/09 06:54:19;;;;;;;2.80;0.60;;;6.50;99.90;;;;;;4933143;28;20048;-81
2023/01/09 06:56:45;;;;;;;2.92;0.60;;;6.40;99.90;;;;;;4930766;28;20379;-81
2023/01/09 06:59:11;;;;;;;5.55;1.02;;;6.50;99.90;;;;;;4932644;28;20039;-81
2023/01/09 07:01:38;;;;;;;4.05;0.35;;;6.50;99.90;;;;;;4928205;28;20024;-81
2023/01/09 07:04:04;;;;;;;4.30;0.90;;;6.50;99.90;;;;;;4932287;28;20047;-81
2023/01/09 07:06:30;;;;;;;1.30;0.65;;;6.40;99.90;;;;;;4936417;28;20026;-81
2023/01/09 07:08:55;;;;;;;3.25;0.60;;;6.40;99.90;;;;;;4929048;28;20498;-82
2023/01/09 07:11:21;;;;;;;6.75;0.95;;;6.50;99.90;;;;;;4946437;28;20570;-80
2023/01/09 07:13:50;;;;;;;6.35;0.73;;;6.50;99.90;;;;;;4934070;28;20482;-83
2023/01/09 07:16:15;;;;;;;0.68;0.45;;;6.50;99.90;;;;;;4918629;28;20077;-81
2023/01/09 07:18:41;;;;;;;5.45;1.00;;;6.50;99.90;;;;;;4912826;28;20031;-81
2023/01/09 07:21:06;;;;;;;2.58;0.65;;;6.40;99.90;;;;;;4932978;28;20562;-82
2023/01/09 07:23:32;;;;;;;4.32;0.90;;;6.40;99.90;;;;;;4933656;28;20050;-81
2023/01/09 07:25:58;;;;;;;5.70;0.60;;;6.40;99.90;;;;;;4919741;28;20039;-81
2023/01/09 07:28:24;;;;;;;6.97;0.90;;;6.40;99.90;;;;;;4944735;28;20291;-81
2023/01/09 07:30:49;;;;;;;3.50;0.70;;;6.50;99.90;;;;;;4915925;28;20037;-81
2023/01/09 07:33:15;;;;;;;3.47;1.02;;;6.50;99.90;;;;;;4934812;28;20045;-81
2023/01/09 07:35:41;;;;;;;3.42;0.75;;;6.50;99.90;;;;;;4935567;28;20058;-81
2023/01/09 07:38:06;;;;;;;7.60;1.20;;;6.50;99.90;;;;;;4919363;28;20047;-82
2023/01/09 07:40:33;;;;;;;4.15;0.68;;;6.50;99.90;;;;;;4929385;28;20031;-81
2023/01/09 07:42:58;;;;;;;2.00;0.68;;;6.50;99.90;;;;;;4929557;28;20127;-81
2023/01/09 07:45:24;;;;;;;2.15;0.70;;;6.40;99.90;;;;;;4932175;28;20046;-81
2023/01/09 07:47:51;;;;;;;2.58;0.80;;;6.50;99.90;;;;;;4933253;28;20041;-81
2023/01/09 07:50:17;;;;;;;1.33;0.40;;;6.60;99.90;;;;;;4930238;28;20042;-80
2023/01/09 07:52:46;;;;;;;6.50;1.20;;;6.50;99.90;;;;;;4948814;28;21146;-81
2023/01/09 07:55:11;;;;;;;7.75;1.20;;;6.50;99.90;;;;;;4932271;28;20871;-82
2023/01/09 07:57:37;;;;;;;8.30;1.63;;;6.50;99.90;;;;;;4929010;28;20036;-81
2023/01/09 08:00:05;;;;;;;6.15;1.13;;;6.60;99.90;;;;;;4942861;28;20105;-80
2023/01/09 08:02:31;;;;;;;5.47;0.60;;;6.60;99.90;;;;;;4933001;28;20042;-82
2023/01/09 08:04:57;;;;;;;1.85;0.60;;;6.60;99.90;;;;;;4923853;28;20181;-81
2023/01/09 08:07:22;;;;;;;2.28;1.17;;;6.60;99.90;;;;;;4926478;28;20047;-81
2023/01/09 08:09:48;;;;;;;4.75;0.98;;;6.60;99.90;;;;;;4929431;28;20116;-81
2023/01/09 08:12:14;;;;;;;2.40;0.57;;;6.60;99.90;;;;;;4934718;28;20030;-81
2023/01/09 08:14:39;;;;;;;3.38;0.93;;;6.60;99.90;;;;;;4934362;28;20031;-81
2023/01/09 08:17:05;;;;;;;4.07;0.52;;;6.60;99.90;;;;;;4932133;28;20050;-81
2023/01/09 08:19:30;;;;;;;2.53;0.50;;;6.60;99.90;;;;;;4913278;28;20031;-80
2023/01/09 08:21:56;;;;;;;5.25;0.95;;;6.60;99.90;;;;;;4917771;28;20074;-80
2023/01/09 08:24:21;;;;;;;4.53;0.82;;;6.60;99.90;;;;;;4930703;28;20276;-81
2023/01/09 08:26:47;;;;;;;5.03;0.70;;;6.60;99.90;;;;;;4919547;28;20033;-80
2023/01/09 08:29:13;;;;;;;3.88;0.98;;;6.60;99.90;;;;;;4918903;28;20059;-81
2023/01/09 08:31:38;;;;;;;3.30;1.02;;;6.60;99.90;;;;;;4918644;28;20470;-81
2023/01/09 08:34:04;;;;;;;5.03;0.77;;;6.60;99.90;;;;;;4920203;28;20487;-81
2023/01/09 08:36:29;;;;;;;3.28;0.73;;;6.60;99.90;;;;;;4943784;28;20027;-81
2023/01/09 08:38:55;;;;;;;4.53;0.70;;;6.70;99.90;;;;;;4916136;28;20082;-81
2023/01/09 08:47:04;;;;;;;1.30;0.40;;;6.70;99.90;;;;;;4951078;28;20085;-81
2023/01/09 08:49:30;;;;;;;5.75;0.68;;;6.70;99.90;;;;;;4965500;28;20027;-80
2023/01/09 08:51:55;;;;;;;1.30;0.45;;;6.70;99.90;;;;;;4917122;28;20043;-82
2023/01/09 08:54:21;;;;;;;5.82;1.35;;;6.70;99.90;;;;;;4947657;28;20098;-81
2023/01/09 08:56:47;;;;;;;4.90;1.20;;;6.70;99.90;;;;;;4917025;28;20041;-81
2023/01/09 08:59:18;;;;;;;7.13;1.00;;;6.70;99.90;;;;;;4914738;28;20069;-81
2023/01/09 09:01:44;;;;;;;2.97;0.47;;;6.70;99.90;;;;;;4914891;28;20087;-81
2023/01/09 09:04:10;;;;;;;4.47;0.82;;;6.70;99.90;;;;;;4928188;28;20535;-80
2023/01/09 09:06:35;;;;;;;1.08;0.63;;;6.70;99.90;;;;;;4912507;28;20045;-81
2023/01/09 09:09:03;;;;;;;0.60;0.40;;;6.70;99.90;;;;;;4914149;28;20035;-81
2023/01/09 09:11:29;;;;;;;4.97;1.02;;;6.80;99.90;;;;;;4908757;28;20035;-82
2023/01/09 09:13:56;;;;;;;1.60;0.80;;;6.80;99.90;;;;;;4912216;28;20477;-82
2023/01/09 09:16:22;;;;;;;3.40;1.30;;;6.70;99.90;;;;;;4936167;28;20080;-81
2023/01/09 09:18:48;;;;;;;2.67;0.60;;;6.80;99.90;;;;;;4917757;28;20046;-81
2023/01/09 09:21:13;;;;;;;3.03;0.38;;;6.80;99.90;;;;;;4931023;28;20035;-82
2023/01/09 09:23:39;;;;;;;3.97;0.93;;;6.80;99.90;;;;;;4930818;28;20608;-81
2023/01/09 09:26:04;;;;;;;1.48;0.20;;;6.80;99.90;;;;;;4930089;28;20383;-82
2023/01/09 09:28:30;;;;;;;3.15;0.90;;;6.80;99.90;;;;;;4928619;28;20039;-81
2023/01/09 09:30:56;;;;;;;6.07;0.68;;;6.80;99.90;;;;;;4929137;28;20058;-81
2023/01/09 09:33:21;;;;;;;21.73;2.35;;;6.80;99.90;;;;;;4934075;28;20042;-81
2023/01/09 09:35:47;;;;;;;5.70;1.00;;;6.80;99.90;;;;;;4914914;28;20472;-82
2023/01/09 09:38:13;;;;;;;0.90;0.40;;;6.80;99.90;;;;;;4933347;28;20529;-81
2023/01/09 09:44:52;;;;;;;3.08;0.70;;;6.80;99.90;;;;;;4947064;28;20089;-82
2023/01/09 09:47:26;;;;;;;4.25;1.02;;;6.80;99.90;;;;;;4904492;28;20513;-82
2023/01/09 09:50:10;;;;;;;7.47;0.95;;;6.80;99.90;;;;;;4964304;28;20034;-82
2023/01/09 09:52:42;;;;;;;8.32;1.98;;;6.80;99.90;;;;;;4961156;28;20593;-82
2023/01/09 09:55:24;;;;;;;3.40;0.82;;;6.80;99.90;;;;;;4945105;28;20039;-81
2023/01/09 09:57:49;;;;;;;1.15;0.35;;;7.00;99.90;;;;;;4933322;28;20035;-81
2023/01/09 10:00:18;;;;;;;4.22;0.95;;;6.90;99.90;;;;;;4932866;28;20035;-82
2023/01/09 10:02:52;;;;;;;3.20;0.55;;;6.90;99.90;;;;;;4914926;28;20039;-82
2023/01/09 10:05:25;;;;;;;3.17;0.50;;;6.90;99.90;;;;;;4923916;28;20469;-82
2023/01/09 10:07:52;;;;;;;6.35;0.68;;;6.90;99.90;;;;;;4944001;28;20039;-82
2023/01/09 10:10:31;;;;;;;3.78;0.70;;;6.90;99.90;;;;;;4938273;28;20035;-82
2023/01/09 10:12:58;;;;;;;7.63;0.90;;;6.90;99.90;;;;;;4927388;28;20034;-81
2023/01/09 10:15:44;;;;;;;3.75;0.60;;;6.90;99.90;;;;;;4894693;28;20047;-82
2023/01/09 10:18:31;;;;;;;1.85;0.38;;;6.90;99.90;;;;;;4935230;28;20089;-82
2023/01/09 10:21:06;;;;;;;7.82;1.15;;;6.90;99.90;;;;;;4957304;28;20046;-82
2023/01/09 10:23:47;;;;;;;8.55;1.02;;;7.00;99.90;;;;;;4937202;28;20182;-81
2023/01/09 10:26:31;;;;;;;5.18;1.08;;;7.00;99.90;;;;;;4923268;28;20039;-82
2023/01/09 10:29:36;;;;;;;3.05;0.43;;;7.00;99.90;;;;;;4909448;28;20035;-82
2023/01/09 10:32:23;;;;;;;7.53;1.23;;;7.00;99.90;;;;;;4947270;28;20041;-82
2023/01/09 10:34:55;;;;;;;1.27;0.50;;;7.00;99.90;;;;;;4933027;28;20036;-81
2023/01/09 10:37:43;;;;;;;4.05;0.70;;;7.10;99.90;;;;;;4953380;28;20062;-82
2023/01/09 10:40:48;;;;;;;1.38;0.45;;;7.10;99.90;;;;;;4933774;28;20176;-82
2023/01/09 10:43:27;;;;;;;3.92;0.98;;;7.10;99.90;;;;;;4937314;28;20049;-82
2023/01/09 10:45:54;;;;;;;1.35;0.88;;;7.20;99.90;;;;;;4945026;28;20034;-81
2023/01/09 10:48:25;;;;;;;1.80;0.77;;;7.20;99.90;;;;;;4923056;28;20034;-82
2023/01/09 10:50:51;;;;;;;4.38;0.70;;;7.40;99.90;;;;;;4938172;28;20062;-81
2023/01/09 10:53:28;;;;;;;0.52;0.30;;;7.30;99.90;;;;;;4935816;28;20042;-81
2023/01/09 10:56:03;;;;;;;3.10;0.82;;;7.30;99.90;;;;;;4937860;28;20026;-81
2023/01/09 10:58:29;;;;;;;4.65;0.70;;;7.40;99.90;;;;;;4932904;28;20046;-81
2023/01/09 11:00:55;;;;;;;4.75;0.70;;;7.40;99.90;;;;;;4932249;28;20039;-82
2023/01/09 11:03:22;;;;;;;1.60;0.70;;;7.40;99.90;;;;;;4917836;28;20043;-82
2023/01/09 11:05:51;;;;;;;2.13;0.68;;;7.40;99.90;;;;;;4919641;28;20043;-82
2023/01/09 11:08:33;;;;;;;1.92;0.50;;;7.50;99.90;;;;;;4929964;28;20046;-81
2023/01/09 11:10:59;;;;;;;1.63;0.32;;;7.50;99.90;;;;;;4923386;28;20061;-81
2023/01/09 11:13:32;;;;;;;2.15;0.30;;;7.60;99.90;;;;;;4934372;28;20043;-82
2023/01/09 11:16:04;;;;;;;5.72;0.80;;;7.60;99.90;;;;;;4949738;28;20403;-82
2023/01/09 11:18:30;;;;;;;1.05;0.40;;;7.70;99.90;;;;;;4933319;28;20047;-81
2023/01/09 11:21:02;;;;;;;3.28;0.95;;;7.80;99.90;;;;;;4950868;28;20085;-81
2023/01/09 11:23:30;;;;;;;2.40;0.75;;;7.80;99.90;;;;;;4937551;28;20046;-81
2023/01/09 11:25:57;;;;;;;4.65;0.80;;;7.90;99.90;;;;;;4935736;28;20064;-82
2023/01/09 11:28:23;;;;;;;2.83;0.95;;;7.80;99.90;;;;;;4933967;28;20117;-81
2023/01/09 11:31:01;;;;;;;2.95;0.85;;;8.00;99.90;;;;;;4925147;28;20170;-81
2023/01/09 11:33:35;;;;;;;3.03;0.77;;;8.00;99.90;;;;;;4933217;28;20047;-81
2023/01/09 11:36:09;;;;;;;1.58;0.63;;;8.10;99.90;;;;;;4946388;28;20035;-81
2023/01/09 11:38:52;;;;;;;5.63;1.05;;;8.10;99.90;;;;;;4938018;28;20511;-81
2023/01/09 11:41:21;;;;;;;2.55;0.80;;;8.10;99.90;;;;;;4933858;28;20569;-81
2023/01/09 11:43:48;;;;;;;3.90;0.77;;;8.10;99.90;;;;;;4935995;28;20110;-81
2023/01/09 11:46:36;;;;;;;3.35;0.57;;;8.20;99.90;;;;;;4946278;28;20100;-81
2023/01/09 11:49:04;;;;;;;3.40;1.05;;;8.20;99.90;;;;;;4923118;28;20344;-82
2023/01/09 11:51:33;;;;;;;1.17;0.65;;;8.10;99.90;;;;;;4934038;28;20035;-81
2023/01/09 11:54:05;;;;;;;1.92;0.57;;;8.10;99.90;;;;;;4949925;28;20608;-81
2023/01/09 11:56:31;;;;;;;1.42;0.90;;;8.10;99.90;;;;;;4932610;28;20126;-81
2023/01/09 11:58:58;;;;;;;4.75;0.65;;;8.10;99.90;;;;;;4932941;28;20113;-81
2023/01/09 12:01:57;;;;;;;8.20;0.93;;;8.00;99.90;;;;;;4935144;28;20769;-81
2023/01/09 12:04:28;;;;;;;3.45;1.13;;;8.10;99.90;;;;;;4967641;28;20748;-81
2023/01/09 12:07:13;;;;;;;2.80;0.60;;;8.10;99.90;;;;;;4963849;28;20031;-81
2023/01/09 12:09:46;;;;;;;5.07;1.35;;;8.10;99.90;;;;;;4949393;28;20050;-81
2023/01/09 12:12:34;;;;;;;5.38;0.68;;;8.00;99.90;;;;;;4966868;28;20502;-80
2023/01/09 12:15:03;;;;;;;3.42;1.25;;;7.90;99.90;;;;;;4947358;28;20487;-81
2023/01/09 12:17:44;;;;;;;3.00;0.95;;;7.90;99.90;;;;;;4965142;28;20130;-81
2023/01/09 12:20:26;;;;;;;4.50;0.65;;;7.80;99.90;;;;;;4965685;28;20687;-81
2023/01/09 12:23:33;;;;;;;2.80;0.70;;;7.80;99.90;;;;;;4963252;28;20035;-80
2023/01/09 12:26:11;;;;;;;3.67;1.13;;;7.80;99.90;;;;;;4909727;28;20042;-80
2023/01/09 12:28:47;;;;;;;3.08;1.02;;;7.70;99.90;;;;;;4934895;28;20039;-81
2023/01/09 12:31:37;;;;;;;1.48;0.70;;;7.70;99.90;;;;;;4949993;28;20093;-81
2023/01/09 12:34:24;;;;;;;9.45;1.10;;;7.60;99.90;;;;;;4946786;28;20427;-81
2023/01/09 12:37:22;;;;;;;3.25;0.70;;;7.60;99.90;;;;;;4947301;28;20889;-81
2023/01/09 12:40:11;;;;;;;5.50;0.95;;;7.60;99.90;;;;;;4942929;28;20063;-81
2023/01/09 12:43:01;;;;;;;2.65;0.70;;;7.60;99.90;;;;;;4966820;28;20058;-81
2023/01/09 12:45:49;;;;;;;2.35;0.70;;;7.60;99.90;;;;;;4945941;28;20039;-81
2023/01/09 12:48:29;;;;;;;3.67;1.00;;;7.50;99.90;;;;;;4944792;28;20436;-83
2023/01/09 12:51:04;;;;;;;4.40;1.13;;;7.50;99.90;;;;;;4965484;28;20460;-80
2023/01/09 12:53:33;;;;;;;1.13;0.77;;;7.40;99.90;;;;;;4932941;28;20041;-81
2023/01/09 12:56:05;;;;;;;2.05;0.38;;;7.40;99.90;;;;;;4931430;28;20492;-80
2023/01/09 12:59:11;;;;;;;1.42;0.70;;;7.40;99.90;;;;;;4967745;28;20039;-81
2023/01/09 13:01:43;;;;;;;6.00;0.77;;;7.40;99.90;;;;;;4922970;28;20482;-81
2023/01/09 13:04:30;;;;;;;1.13;0.60;;;7.30;99.90;;;;;;4926719;28;20063;-81
2023/01/09 13:07:10;;;;;;;2.70;0.40;;;7.30;99.90;;;;;;4932231;28;20034;-81
2023/01/09 13:09:43;;;;;;;1.10;0.50;;;7.30;99.90;;;;;;4948341;28;20487;-81
2023/01/09 13:12:20;;;;;;;1.83;0.80;;;7.30;99.90;;;;;;4945407;28;20039;-80
2023/01/09 13:14:51;;;;;;;0.63;0.50;;;7.20;99.90;;;;;;4939938;28;20399;-80
2023/01/09 13:17:29;;;;;;;1.80;0.95;;;7.10;99.90;;;;;;4962280;28;20075;-81
2023/01/09 13:19:55;;;;;;;3.10;0.98;;;7.20;99.90;;;;;;4948199;28;20027;-80
2023/01/09 13:22:22;;;;;;;1.48;0.77;;;7.30;99.90;;;;;;4919639;28;20046;-80
2023/01/09 13:25:05;;;;;;;6.53;1.73;;;7.20;99.90;;;;;;4935893;28;20041;-80
2023/01/09 13:27:38;;;;;;;1.00;0.63;;;7.30;99.90;;;;;;4944430;28;20480;-80